レイキャビク/ケフラヴィーク の空港の天気 - METARとTAF

ケフラヴィーク国際空港 ( BIKF / KEF ) - アイスランド ケプラヴィーク
飛行場実況気象(Metar)
観測時間04/10 05:30 GMT (04/10 05:30 UTC)
風向・風速北東 3m/s
視程10km以上
天気現象
なし
気温1℃
湿度80%
気圧1018hPa
METARBIKF 100530Z 04006KT CAVOK 01/M02 Q1018
過去の天気等 Google飛行場航空写真 Wunderground天気予報

過去48時間のMETAR

飛行場予報(TAF)
発表時間: 4/10 04:04 GMT (4/10 04:04 UTC)
予報対象時間: 10日6時 GMT ~ 11日6時 GMT
風向・風速北東 4m/s
視程10km以上
少しの雲 雲底高度 460m
全天の8割程度の雲 雲底高度 910m
10日7時 GMT ~ 10日9時 GMT に徐々に
風向・風速東北東 8m/s
天気現象弱い雨
全天の4割程度の雲 雲底高度 300m
全天の8割程度の雲 雲底高度 610m
全天を覆う雲 雲底高度 1070m
10日9時 GMT ~ 10日18時 GMT に 確率 40% で一時的に
視程5000m
天気現象雨霧雨
全天の8割程度の雲 雲底高度 370m
全天を覆う雲 雲底高度 550m
TAF BIKF 100404Z 1006/1106 05008KT 9999 FEW015 BKN030 TX03/1015Z TN00/1006Z
BECMG 1007/1009 06015KT -RA SCT010 BKN020 OVC035
PROB40 TEMPO 1009/1018 5000 RADZ BKN012 OVC018